Nearby METAR Reports

 

KBJC - Broomfield/Jeffc, Colorado, USA
Distance from station: SSW 3mi, 5km
Updated: Thu, 19-Apr-2018 3:45pm MDT
Mostly cloudy
Mostly cloudy
 Wind from NNW
Wind: NNW 6 mph , 9 km/h
Temperature: 61°F , 16°C
Dew Point: 19°F , -7°C
Humidity: 20%
Barometer: 30.03 inHg , 1016.9 hPa
Clouds: Mostly cloudy
Visibility: 50 miles , 80 km
Cloud details: Mostly cloudy 15000 ft
2018/04/19 21:45 KBJC 192145Z 34005KT 50SM BKN150 16/M07 A3003
KEIK - Erie Muni, Colorado, USA
Distance from station: N 5mi, 9km
Updated: Thu, 19-Apr-2018 4:39pm MDT
Clear
Clear
 Wind from NW
Wind: NW 7 mph , 11 km/h
Temperature: 61°F , 16°C
Dew Point: 18°F , -8°C
Humidity: 19%
Barometer: 30.05 inHg , 1017.6 hPa
Clouds: Clear
Visibility: 10 miles , 16 km
2018/04/19 22:39 KEIK 192239Z AUTO 32006KT 10SM CLR 16/M08 A3005 RMK AO2 T01561083
 
KBDU - Boulder Muni, Colorado, USA
Distance from station: NW 11mi, 17km
Updated: Thu, 19-Apr-2018 4:35pm MDT
Clear
Clear
 Wind from calm
Wind: Calm
Temperature: 59°F , 15°C
Dew Point: 19°F , -7°C
Humidity: 21%
Barometer: 30.00 inHg , 1015.9 hPa
Clouds: Clear
Visibility: 10 miles , 16 km
2018/04/19 22:35 KBDU 192235Z AUTO 00000KT 10SM CLR 15/M07 A3000 RMK AO2
KLMO - Longmont/Vbrand, Colorado, USA
Distance from station: NNW 16mi, 27km
Updated: Thu, 19-Apr-2018 4:35pm MDT
Clear
Clear
 Wind from NNW
Wind: NNW 5 mph , 7 km/h
Temperature: 63°F , 17°C
Dew Point: 19°F , -7°C
Humidity: 19%
Barometer: 30.02 inHg , 1016.6 hPa
Clouds: Clear
Visibility: 10 miles , 16 km
2018/04/19 22:35 KLMO 192235Z AUTO 34004KT 10SM CLR 17/M07 A3002 RMK AO2 T01711073
 
KBKF - Buckley Angb/Den, Colorado, USA
Distance from station: SE 23mi, 37km
Updated: Thu, 19-Apr-2018 3:58pm MDT
Mostly cloudy
Mostly cloudy
 Wind from SSE
Wind: SSE 28 mph , 44 km/h, Gust: 37 mph , 59 km/h
Temperature: 64°F , 18°C
Dew Point: 14°F , -10°C
Humidity: 14%
Barometer: 30.00 inHg , 1015.9 hPa
Clouds: Mostly cloudy
Visibility: 10 miles , 16 km
Cloud details: Few Clouds 12000 ft
Mostly cloudy 20000 ft
2018/04/19 21:58 KBKF 192158Z 16024G32KT 10SM FEW120 BKN200 18/M10 A3000 RMK AO2A PK WND 17035/44 PRESFR SLP123 T01831097
KDEN - Denver (dia), Colorado, USA
Distance from station: ESE 23mi, 37km
Updated: Thu, 19-Apr-2018 3:53pm MDT
Mostly cloudy
Mostly cloudy
 Wind from S
Wind: S 26 mph , 43 km/h, Gust: 38 mph , 61 km/h
Temperature: 66°F , 19°C
Dew Point: 16°F , -9°C
Humidity: 14%
Barometer: 30.01 inHg , 1016.3 hPa
Clouds: Mostly cloudy
Visibility: 10 miles , 16 km
Cloud details: Few Clouds 12000 ft
Mostly cloudy 22000 ft
2018/04/19 21:53 KDEN 192153Z 17023G33KT 10SM FEW120 BKN220 19/M09 A3001 RMK AO2 PK WND 17033/2151 SLP129 T01941094
 
KAPA - Denver/Arapahoe, Colorado, USA
Distance from station: SSE 28mi, 46km
Updated: Thu, 19-Apr-2018 3:53pm MDT
Mostly cloudy
Mostly cloudy
 Wind from S
Wind: S 35 mph , 56 km/h, Gust: 47 mph , 76 km/h
Temperature: 63°F , 17°C
Dew Point: 16°F , -9°C
Humidity: 16%
Barometer: 30.01 inHg , 1016.3 hPa
Clouds: Mostly cloudy
Visibility: 10 miles , 16 km
Cloud details: Few Clouds 14000 ft
Mostly cloudy 22000 ft
2018/04/19 21:53 KAPA 192153Z 17030G41KT 10SM FEW140 BKN220 17/M09 A3001 RMK AO2 PK WND 17041/2153 SLP145 T01671089
KFTG - Denver F. Range, Colorado, USA
Distance from station: ESE 30mi, 48km
Updated: Thu, 19-Apr-2018 3:51pm MDT
Mostly cloudy
Mostly cloudy
 Wind from SSE
Wind: SSE 10 mph , 17 km/h, Gust: 35 mph , 56 km/h
Temperature: 68°F , 20°C
Dew Point: 14°F , -10°C
Humidity: 12%
Barometer: 30.03 inHg , 1016.9 hPa
Clouds: Mostly cloudy
Visibility: 10 miles , 16 km
Cloud details: Mostly cloudy 22000 ft
2018/04/19 21:51 KFTG 192151Z 16009G30KT 10SM BKN220 20/M10 A3003
 
KFNL - Ft Collins/Lovel, Colorado, USA
Distance from station: N 35mi, 57km
Updated: Thu, 19-Apr-2018 3:56pm MDT
Clear
Clear
 Wind from W
Wind: W 9 mph , 15 km/h
Temperature: 63°F , 17°C
Dew Point: 21°F , -6°C
Humidity: 20%
Barometer: 30.02 inHg , 1016.6 hPa
Clouds: Clear
Visibility: 10 miles , 16 km
2018/04/19 21:56 KFNL 192156Z AUTO 28008KT 10SM CLR 17/M06 A3002 RMK AO2 SLP149 T01671061
K0CO - Berthoud Pass, Colorado, USA
Distance from station: WSW 38mi, 61km
Updated: Thu, 19-Apr-2018 4:29pm MDT
Clear
Clear
 Wind from S
Wind: S 13 mph , 20 km/h, Gust: 30 mph , 48 km/h
Temperature: 27°F , -3°C
Wind Chill: 16°F , -9°C
Dew Point: 18°F , -8°C
Humidity: 69%
Barometer: 30.20 inHg , 1022.7 hPa
Clouds: Clear
2018/04/19 22:29 K0CO 192229Z AUTO 17011G26KT 071V341 CLR M03/M08 A3020 RMK AO2 PWINO
 
KGXY - Greeley/Weld, Colorado, USA
Distance from station: NE 41mi, 66km
Updated: Thu, 19-Apr-2018 3:56pm MDT
Clear
Clear
 Wind from SE
Wind: SE 22 mph , 35 km/h, Gust: 32 mph , 52 km/h
Temperature: 70°F , 21°C
Dew Point: 16°F , -9°C
Humidity: 12%
Barometer: 30.00 inHg , 1015.9 hPa
Clouds: Clear
Visibility: 10 miles , 16 km
2018/04/19 21:56 KGXY 192156Z AUTO 13019G28KT 10SM CLR 21/M09 A3000 RMK AO2 PK WND 14028/2151 SLP158 T02111089